Time;durP1;ratioP1;P1;durP2;ratioP2;P2;SDS_P1;SDS_P2;PMS_P1;PMS_P2;Temp;Humidity;BMP_temperature;BMP_pressure;BME280_temperature;BME280_humidity;BME280_pressure;Samples;Min_cycle;Max_cycle;Signal;HPM_P1;HPM_P2
2022/03/27 00:03:42;;;;;;;27.85;15.02;;;;;;;8.68;72.13;101990.44;8543666;32;20408;-73
2022/03/27 00:08:45;;;;;;;24.73;14.32;;;;;;;8.74;72.00;101992.81;8543168;32;20464;-73
2022/03/27 00:13:50;;;;;;;27.80;14.85;;;;;;;8.75;71.69;101985.63;8545597;32;20429;-73
2022/03/27 00:18:53;;;;;;;29.77;15.27;;;;;;;8.67;71.63;101978.00;8545822;32;20248;-73
2022/03/27 00:23:56;;;;;;;28.98;15.40;;;;;;;8.71;71.52;101973.34;8546649;32;20915;-73
2022/03/27 00:29:00;;;;;;;29.85;14.98;;;;;;;8.68;71.90;101978.84;8547237;32;20241;-73
2022/03/27 00:34:07;;;;;;;29.52;13.82;;;;;;;8.56;71.01;101969.59;8545477;33;20498;-73
2022/03/27 00:39:10;;;;;;;29.95;15.02;;;;;;;8.38;71.10;101976.66;8545296;32;20502;-73
2022/03/27 00:44:14;;;;;;;30.10;15.25;;;;;;;8.32;71.24;101968.91;8545739;32;20494;-73
2022/03/27 00:49:17;;;;;;;33.72;15.68;;;;;;;8.09;71.29;101970.84;8546978;32;20413;-73
2022/03/27 00:54:20;;;;;;;35.47;16.33;;;;;;;7.93;70.99;101967.97;8546021;32;20405;-73
2022/03/27 00:59:25;;;;;;;35.40;15.95;;;;;;;7.84;70.64;101983.56;8544801;33;20549;-73
2022/03/27 01:04:28;;;;;;;35.15;16.85;;;;;;;7.69;70.74;101983.31;8542727;33;20548;-73
2022/03/27 01:09:37;;;;;;;33.50;16.25;;;;;;;7.56;70.59;101974.06;8541832;33;20470;-73
2022/03/27 01:14:44;;;;;;;32.65;15.63;;;;;;;7.41;70.06;101964.91;8542239;32;20528;-73
2022/03/27 01:19:50;;;;;;;34.40;16.10;;;;;;;7.42;69.58;101968.44;8542660;33;20313;-73
2022/03/27 01:24:54;;;;;;;32.55;15.77;;;;;;;7.27;69.17;101964.63;8547172;32;20350;-73
2022/03/27 01:29:59;;;;;;;32.60;15.38;;;;;;;7.06;69.67;101969.06;8546161;33;20416;-73
2022/03/27 01:35:02;;;;;;;32.25;16.10;;;;;;;7.12;69.25;101955.44;8544411;32;20533;-73
2022/03/27 01:40:08;;;;;;;32.78;15.80;;;;;;;7.07;69.60;101965.44;8540645;33;20469;-73
2022/03/27 01:45:12;;;;;;;34.20;15.82;;;;;;;7.09;69.12;101962.72;8540407;33;20191;-73
2022/03/27 01:50:15;;;;;;;33.45;15.32;;;;;;;6.99;69.60;101957.75;8613291;33;20578;-73
2022/03/27 01:55:20;;;;;;;32.47;16.52;;;;;;;6.88;69.68;101959.97;8595445;33;20502;-73
2022/03/27 02:00:23;;;;;;;33.97;15.27;;;;;;;6.81;69.78;101955.81;8596296;33;20197;-73
2022/03/27 02:05:27;;;;;;;33.97;16.08;;;;;;;6.84;70.04;101956.53;8597965;33;20182;-73
2022/03/27 02:10:31;;;;;;;41.55;17.73;;;;;;;6.88;70.16;101954.63;8604985;33;20155;-73
2022/03/27 02:15:34;;;;;;;38.38;15.50;;;;;;;6.90;69.84;101966.13;8601322;33;21263;-73
2022/03/27 02:20:39;;;;;;;37.58;16.75;;;;;;;6.92;70.08;101964.28;8603072;33;21827;-73
2022/03/27 02:25:44;;;;;;;35.67;16.23;;;;;;;6.98;69.66;101971.19;8598354;33;20930;-72
2022/03/27 02:30:47;;;;;;;38.35;17.40;;;;;;;6.87;69.50;101963.59;8601425;33;20205;-73
2022/03/27 02:35:51;;;;;;;36.90;17.30;;;;;;;6.77;69.68;101965.72;8603787;33;20468;-73
2022/03/27 02:40:55;;;;;;;39.97;18.45;;;;;;;6.67;70.27;101967.03;8607052;33;20127;-73
2022/03/27 02:45:58;;;;;;;38.13;16.70;;;;;;;6.63;70.25;101954.72;8606053;33;20182;-73
2022/03/27 02:51:01;;;;;;;41.83;17.45;;;;;;;6.52;70.36;101967.63;8608582;33;20466;-72
2022/03/27 02:56:06;;;;;;;44.08;18.80;;;;;;;6.57;70.64;101960.31;8605776;33;20505;-72
2022/03/27 03:01:09;;;;;;;40.78;18.30;;;;;;;6.57;70.08;101963.84;8606340;33;20442;-73
2022/03/27 03:06:13;;;;;;;42.30;18.77;;;;;;;6.48;70.14;101958.00;8603134;33;20189;-73
2022/03/27 03:11:20;;;;;;;41.40;19.38;;;;;;;6.45;70.19;101966.16;8603944;33;20422;-72
2022/03/27 03:16:26;;;;;;;41.83;20.10;;;;;;;6.39;70.15;101960.09;8601952;33;20430;-73
2022/03/27 03:21:30;;;;;;;41.47;20.30;;;;;;;6.34;70.25;101963.88;8603993;33;20143;-72
2022/03/27 03:26:35;;;;;;;35.58;17.33;;;;;;;6.29;70.25;101958.72;8604829;33;20411;-73
2022/03/27 03:31:38;;;;;;;34.20;16.88;;;;;;;6.23;70.37;101961.63;8603352;33;21669;-73
2022/03/27 03:36:41;;;;;;;38.72;18.90;;;;;;;6.08;70.74;101964.84;8607289;33;20136;-73
2022/03/27 03:41:47;;;;;;;37.97;17.65;;;;;;;5.90;71.13;101967.28;8606597;33;22570;-73
2022/03/27 03:46:59;;;;;;;36.60;17.40;;;;;;;5.89;71.29;101961.97;8578189;33;20229;-73
2022/03/27 03:52:02;;;;;;;40.80;18.65;;;;;;;5.83;71.23;101962.22;8600161;33;20692;-73
2022/03/27 03:57:07;;;;;;;43.70;18.42;;;;;;;5.82;71.54;101955.16;8598117;33;20487;-72
2022/03/27 04:03:17;;;;;;;44.00;19.10;;;;;;;5.76;71.49;101960.69;8593841;33;20440;-74
2022/03/27 04:08:20;;;;;;;40.13;18.33;;;;;;;5.64;71.52;101962.00;8586289;33;20449;-74
2022/03/27 04:13:25;;;;;;;42.28;19.75;;;;;;;5.65;71.77;101950.41;8593279;33;20407;-74
2022/03/27 04:18:28;;;;;;;45.75;20.35;;;;;;;5.50;71.90;101955.34;8590396;33;20139;-74
2022/03/27 04:23:31;;;;;;;42.03;18.83;;;;;;;5.44;71.90;101952.91;8593236;33;20131;-74
2022/03/27 04:28:35;;;;;;;44.90;19.92;;;;;;;5.36;72.56;101951.44;8602153;33;20143;-74
2022/03/27 04:33:38;;;;;;;44.38;20.73;;;;;;;5.32;72.40;101953.34;8596317;33;20467;-72
2022/03/27 04:38:41;;;;;;;44.75;20.35;;;;;;;5.32;72.46;101958.66;8598808;33;21227;-72
2022/03/27 04:43:48;;;;;;;44.63;20.33;;;;;;;5.30;72.40;101954.31;8603409;33;20230;-74
2022/03/27 04:48:51;;;;;;;43.35;19.33;;;;;;;5.27;72.09;101955.28;8582757;33;20169;-74
2022/03/27 04:53:54;;;;;;;49.72;21.55;;;;;;;5.39;72.23;101967.31;8616762;33;20151;-74
2022/03/27 04:58:58;;;;;;;47.88;20.73;;;;;;;5.40;72.55;101972.59;8616994;33;22161;-74
2022/03/27 05:04:01;;;;;;;54.30;21.85;;;;;;;5.49;72.85;101966.06;8613253;33;20866;-74
2022/03/27 05:09:04;;;;;;;53.17;21.02;;;;;;;5.62;72.84;101975.41;8611770;33;20250;-74
2022/03/27 05:14:09;;;;;;;47.25;22.50;;;;;;;5.72;72.47;101979.47;8608326;33;20616;-72
2022/03/27 05:19:11;;;;;;;53.40;22.33;;;;;;;5.83;72.28;101972.88;8601943;33;20131;-73
2022/03/27 05:24:14;;;;;;;49.15;21.05;;;;;;;5.91;71.68;101976.13;8573242;33;20430;-74
2022/03/27 05:29:19;;;;;;;51.65;23.27;;;;;;;5.94;71.78;101976.88;8597761;33;20413;-74
2022/03/27 05:34:22;;;;;;;45.92;19.75;;;;;;;5.97;71.93;101978.56;8601504;33;20128;-74
2022/03/27 05:39:25;;;;;;;50.50;20.50;;;;;;;6.15;71.51;101979.72;8597941;33;20158;-73
2022/03/27 05:44:29;;;;;;;46.65;20.67;;;;;;;6.21;71.30;101982.16;8596750;33;20758;-73
2022/03/27 05:49:32;;;;;;;51.85;21.30;;;;;;;6.33;70.88;101987.00;8595623;33;20320;-73
2022/03/27 05:54:35;;;;;;;46.55;20.67;;;;;;;6.34;70.67;102002.13;8594964;33;20667;-73
2022/03/27 05:59:39;;;;;;;47.33;20.10;;;;;;;6.34;70.46;101987.91;8594848;33;20196;-73
2022/03/27 06:04:43;;;;;;;46.72;20.42;;;;;;;6.32;70.18;101995.09;8596175;33;20147;-72
2022/03/27 06:09:46;;;;;;;52.08;20.13;;;;;;;6.33;69.90;101994.16;8598197;33;20147;-73
2022/03/27 06:14:50;;;;;;;45.42;19.33;;;;;;;6.22;69.77;101983.88;8587684;33;20155;-73
2022/03/27 06:19:53;;;;;;;50.55;20.00;;;;;;;6.20;70.50;101984.84;8588718;33;20556;-74
2022/03/27 06:24:57;;;;;;;38.67;18.17;;;;;;;6.49;69.77;101981.97;8591596;33;20209;-73
2022/03/27 06:30:01;;;;;;;46.83;19.50;;;;;;;6.63;68.42;101978.75;8599265;33;20218;-74
2022/03/27 06:35:07;;;;;;;43.47;18.75;;;;;;;6.76;68.58;101985.34;8608418;33;20419;-73
2022/03/27 06:40:12;;;;;;;46.40;19.30;;;;;;;6.77;68.64;101997.78;8604716;33;20230;-73
2022/03/27 06:45:18;;;;;;;48.95;20.92;;;;;;;6.73;68.35;102001.50;8612600;33;20519;-73
2022/03/27 06:50:22;;;;;;;42.65;18.35;;;;;;;6.79;69.26;102003.94;8602287;33;20179;-73
2022/03/27 06:55:27;;;;;;;40.92;18.13;;;;;;;6.94;68.92;102010.50;8598075;33;21535;-73
2022/03/27 07:05:53;;;;;;;43.38;19.70;;;;;;;7.29;68.04;102016.22;8645828;32;20410;-72
2022/03/27 07:10:56;;;;;;;31.60;10.90;;;;;;;7.19;68.00;102013.06;8654396;33;20260;-72
2022/03/27 07:16:01;;;;;;;34.78;16.15;;;;;;;7.47;67.93;102014.59;8656982;33;20511;-73
2022/03/27 07:21:04;;;;;;;33.83;16.85;;;;;;;8.03;67.19;102016.59;8657630;33;20582;-72
2022/03/27 07:26:07;;;;;;;32.58;16.55;;;;;;;8.31;65.11;102005.53;8635743;32;20189;-73
2022/03/27 07:31:12;;;;;;;36.33;17.30;;;;;;;8.46;64.69;102006.66;8663943;33;20146;-74
2022/03/27 07:36:15;;;;;;;41.30;17.98;;;;;;;8.50;63.86;101997.56;8668118;33;20155;-73
2022/03/27 07:41:18;;;;;;;40.03;18.35;;;;;;;8.49;63.69;102002.97;8647994;33;20190;-71
2022/03/27 07:46:23;;;;;;;47.17;21.58;;;;;;;8.45;64.49;102004.00;8664263;33;20893;-73
2022/03/27 07:51:27;;;;;;;43.42;20.35;;;;;;;8.52;64.15;101998.31;8666993;33;21050;-73
2022/03/27 07:56:30;;;;;;;40.88;20.10;;;;;;;8.45;63.96;102002.22;8663848;33;20241;-73
2022/03/27 08:01:35;;;;;;;37.53;18.20;;;;;;;8.68;64.25;102009.19;8664857;33;20410;-73
2022/03/27 08:06:38;;;;;;;37.78;17.58;;;;;;;8.73;64.06;102008.97;8651393;33;20419;-72
2022/03/27 08:11:42;;;;;;;41.55;18.88;;;;;;;8.66;64.03;102011.06;8657701;33;20425;-74
2022/03/27 08:16:47;;;;;;;39.28;18.25;;;;;;;8.84;64.25;102018.25;8655027;33;20503;-74
2022/03/27 08:21:50;;;;;;;38.08;17.73;;;;;;;9.17;62.97;102016.69;8652724;33;20342;-73
2022/03/27 08:27:00;;;;;;;43.28;18.63;;;;;;;9.34;62.75;102018.53;8630207;33;21095;-73
2022/03/27 08:32:09;;;;;;;42.10;18.30;;;;;;;9.53;62.19;102018.47;8655087;33;20416;-73
2022/03/27 08:37:15;;;;;;;36.13;17.00;;;;;;;9.64;61.63;102029.53;8657692;33;20169;-72
2022/03/27 08:42:20;;;;;;;40.60;18.92;;;;;;;9.71;61.44;102025.59;8652041;33;20185;-73
2022/03/27 08:47:27;;;;;;;39.58;17.90;;;;;;;9.11;63.27;102033.94;8645485;33;20190;-74
2022/03/27 08:52:46;;;;;;;36.20;17.27;;;;;;;9.51;62.82;102035.50;8649829;33;20434;-73
2022/03/27 08:57:58;;;;;;;39.15;16.95;;;;;;;9.53;62.70;102037.25;8647537;33;22140;-74
2022/03/27 09:03:05;;;;;;;38.33;17.60;;;;;;;9.58;62.68;102032.53;8653105;33;21042;-72
2022/03/27 09:08:12;;;;;;;36.45;17.25;;;;;;;9.99;60.68;102025.03;8628222;33;20422;-72
2022/03/27 09:13:18;;;;;;;38.08;17.15;;;;;;;10.15;59.45;102036.72;8656786;33;20226;-73
2022/03/27 09:18:23;;;;;;;36.38;17.15;;;;;;;10.40;59.39;102027.34;8590747;33;20198;-72
2022/03/27 09:23:28;;;;;;;40.35;18.00;;;;;;;10.57;58.19;102026.41;8579478;33;20440;-73
2022/03/27 09:28:33;;;;;;;33.55;16.50;;;;;;;10.53;58.49;102024.81;8604047;33;20482;-74
2022/03/27 09:33:47;;;;;;;36.13;17.00;;;;;;;10.32;58.79;102018.81;8597019;33;20417;-72
2022/03/27 09:39:11;;;;;;;39.00;18.55;;;;;;;10.59;58.00;102016.44;8593476;33;20279;-74
2022/03/27 09:44:18;;;;;;;35.13;16.58;;;;;;;11.80;56.10;102006.78;8593186;33;20733;-73
2022/03/27 09:49:26;;;;;;;34.55;17.10;;;;;;;12.28;53.11;102003.81;8588577;33;20562;-73
2022/03/27 09:54:45;;;;;;;34.65;16.80;;;;;;;12.79;51.49;101996.13;8652516;33;20416;-71
2022/03/27 09:59:49;;;;;;;34.63;16.83;;;;;;;12.90;51.60;101987.31;8668886;33;22643;-74
2022/03/27 10:05:05;;;;;;;34.17;16.45;;;;;;;13.02;51.75;102000.84;8612862;33;20462;-74
2022/03/27 10:10:11;;;;;;;34.38;15.35;;;;;;;13.66;49.28;101984.91;8655702;33;20458;-72
2022/03/27 10:15:17;;;;;;;33.72;16.63;;;;;;;14.23;49.67;101996.25;8655587;33;20459;-73
2022/03/27 10:20:33;;;;;;;30.75;16.20;;;;;;;14.42;48.73;101987.72;8651200;33;20420;-73
2022/03/27 10:25:41;;;;;;;30.73;15.70;;;;;;;13.75;50.60;101978.00;8656855;33;20178;-73
2022/03/27 10:30:46;;;;;;;32.90;15.98;;;;;;;14.41;50.17;101967.09;8661111;33;20437;-72
2022/03/27 10:36:01;;;;;;;33.53;16.75;;;;;;;14.33;48.46;101963.06;8641868;33;20513;-73
2022/03/27 10:41:13;;;;;;;31.25;15.63;;;;;;;14.76;48.30;101969.94;8602123;33;20150;-73
2022/03/27 10:46:20;;;;;;;29.60;14.73;;;;;;;15.60;47.08;101960.84;8600578;33;20513;-73
2022/03/27 10:51:40;;;;;;;27.30;14.15;;;;;;;15.29;46.63;101953.34;8607884;33;20676;-72
2022/03/27 10:56:45;;;;;;;27.83;13.63;;;;;;;14.46;47.16;101948.69;8607110;33;20135;-73
2022/03/27 11:01:50;;;;;;;26.88;14.27;;;;;;;14.66;47.01;101945.38;8616347;33;20395;-74
2022/03/27 11:07:20;;;;;;;23.98;13.13;;;;;;;14.70;47.17;101935.19;8654781;33;20803;-73
2022/03/27 11:12:31;;;;;;;25.73;13.48;;;;;;;15.90;45.05;101929.63;8645368;33;20498;-72
2022/03/27 11:17:52;;;;;;;26.33;12.18;;;;;;;16.91;42.39;101926.81;8626600;33;20150;-73
2022/03/27 11:22:59;;;;;;;26.65;13.65;;;;;;;15.81;45.18;101922.22;8679687;33;20440;-73
2022/03/27 11:28:11;;;;;;;21.20;11.77;;;;;;;17.68;41.51;101912.13;8655539;33;21212;-75
2022/03/27 11:33:18;;;;;;;21.27;12.32;;;;;;;18.63;39.56;101909.13;8674451;33;20438;-72
2022/03/27 11:38:25;;;;;;;18.42;10.52;;;;;;;18.50;38.80;101900.34;8665482;33;20430;-73
2022/03/27 11:43:32;;;;;;;16.38;9.32;;;;;;;18.53;37.47;101891.91;8672420;33;20405;-73
2022/03/27 11:48:35;;;;;;;14.40;9.15;;;;;;;19.12;37.38;101884.69;8670406;33;20178;-73
2022/03/27 11:53:39;;;;;;;11.65;7.25;;;;;;;20.13;35.66;101877.69;8659605;33;20485;-74
2022/03/27 11:58:42;;;;;;;7.57;5.40;;;;;;;20.01;34.76;101870.69;8664616;33;20422;-73
2022/03/27 12:03:46;;;;;;;11.38;6.68;;;;;;;19.14;36.35;101866.31;8660616;33;20510;-73
2022/03/27 12:08:52;;;;;;;7.57;4.57;;;;;;;20.05;34.85;101855.78;8657566;33;20186;-73
2022/03/27 12:13:56;;;;;;;8.52;5.35;;;;;;;21.27;32.77;101861.66;8655802;33;20551;-73
2022/03/27 12:18:59;;;;;;;8.27;5.18;;;;;;;22.08;32.88;101850.38;8654441;33;20174;-74
2022/03/27 12:24:05;;;;;;;9.15;5.65;;;;;;;22.77;31.31;101847.50;8657465;33;20530;-74
2022/03/27 12:34:42;;;;;;;7.97;5.25;;;;;;;22.69;29.85;101839.28;8656174;33;20479;-75
2022/03/27 12:40:07;;;;;;;4.35;2.80;;;;;;;21.98;30.14;101822.28;8658028;33;20392;-72
2022/03/27 12:45:14;;;;;;;2.30;1.87;;;;;;;21.94;30.01;101820.03;8631477;33;20414;-74
2022/03/27 12:50:33;;;;;;;1.70;1.23;;;;;;;22.27;29.15;101813.66;8655246;33;20416;-73
2022/03/27 12:55:47;;;;;;;4.47;2.97;;;;;;;22.00;29.81;101808.44;8660117;33;21507;-73
2022/03/27 13:01:06;;;;;;;4.78;3.22;;;;;;;21.82;31.44;101809.38;8674875;33;20135;-74
2022/03/27 13:06:11;;;;;;;4.15;2.60;;;;;;;21.90;29.66;101794.88;8667022;33;20615;-74
2022/03/27 13:11:22;;;;;;;4.13;2.85;;;;;;;21.62;29.70;101786.03;8605130;33;20155;-74
2022/03/27 13:16:28;;;;;;;5.22;3.10;;;;;;;22.83;28.50;101786.53;8650403;33;21485;-74
2022/03/27 13:21:33;;;;;;;4.47;2.95;;;;;;;24.54;26.42;101774.13;8648752;33;20229;-74
2022/03/27 13:26:42;;;;;;;3.72;2.50;;;;;;;25.25;26.05;101762.84;8650500;33;20530;-73
2022/03/27 13:31:45;;;;;;;3.47;2.20;;;;;;;26.78;24.69;101755.63;8656207;33;20432;-74
2022/03/27 13:36:52;;;;;;;3.55;2.00;;;;;;;26.82;23.11;101745.88;8657324;33;20425;-75
2022/03/27 13:47:18;;;;;;;2.20;1.88;;;;;;;26.84;22.57;101741.06;8661387;33;20404;-74
2022/03/27 13:52:21;;;;;;;3.20;2.03;;;;;;;26.97;22.14;101727.38;8661926;33;20150;-74
2022/03/27 13:57:26;;;;;;;2.88;2.05;;;;;;;27.03;21.97;101729.31;8662486;33;20700;-73
2022/03/27 14:02:29;;;;;;;6.10;3.90;;;;;;;27.63;23.10;101726.09;8659805;33;20142;-76
2022/03/27 14:07:32;;;;;;;7.47;4.60;;;;;;;28.05;22.63;101722.22;8662710;33;20679;-75
2022/03/27 14:12:37;;;;;;;11.85;7.30;;;;;;;28.32;23.35;101723.13;8670045;33;20273;-76
2022/03/27 14:17:40;;;;;;;11.70;7.15;;;;;;;27.62;23.32;101711.44;8663006;33;20134;-74
2022/03/27 14:22:43;;;;;;;20.83;10.68;;;;;;;27.06;24.88;101706.00;8661554;33;20134;-75
2022/03/27 14:27:47;;;;;;;19.02;10.40;;;;;;;24.91;26.50;101716.63;8661039;33;20220;-74
2022/03/27 14:32:51;;;;;;;17.40;9.85;;;;;;;21.25;30.38;101713.38;8660789;33;20427;-74
2022/03/27 14:37:54;;;;;;;17.42;10.07;;;;;;;22.46;29.39;101713.09;8656810;33;20163;-75
2022/03/27 14:42:58;;;;;;;20.33;10.32;;;;;;;23.02;29.46;101710.50;8664222;33;20153;-76
2022/03/27 14:48:01;;;;;;;21.27;12.50;;;;;;;22.80;29.14;101707.44;8671005;33;20419;-73
2022/03/27 14:53:05;;;;;;;19.90;11.05;;;;;;;22.65;30.08;101695.47;8674932;33;20443;-73
2022/03/27 14:58:11;;;;;;;21.58;12.07;;;;;;;22.64;30.09;101694.63;8672858;33;20276;-73
2022/03/27 15:03:14;;;;;;;18.02;10.68;;;;;;;22.72;29.99;101699.25;8674917;33;20454;-73
2022/03/27 15:08:18;;;;;;;22.80;12.35;;;;;;;22.33;30.27;101686.22;8677556;33;21605;-74
2022/03/27 15:13:22;;;;;;;21.00;11.77;;;;;;;22.15;30.86;101685.50;8682117;33;20143;-74
2022/03/27 15:18:25;;;;;;;20.83;12.00;;;;;;;22.09;31.31;101676.09;8680773;33;20545;-75
2022/03/27 15:23:28;;;;;;;25.38;13.35;;;;;;;22.99;29.96;101667.84;8677986;33;20403;-76
2022/03/27 15:28:33;;;;;;;22.35;12.38;;;;;;;23.26;29.12;101668.47;8673619;33;20423;-76
2022/03/27 15:33:37;;;;;;;21.90;11.43;;;;;;;23.54;28.59;101667.00;8674670;33;20182;-76
2022/03/27 15:38:40;;;;;;;20.60;11.68;;;;;;;23.40;28.86;101659.53;8673831;33;20344;-76
2022/03/27 15:43:46;;;;;;;17.88;10.52;;;;;;;22.19;29.17;101652.19;8664977;33;20135;-75
2022/03/27 15:48:49;;;;;;;18.58;10.65;;;;;;;21.30;30.78;101661.84;8675186;33;20545;-75
2022/03/27 15:53:53;;;;;;;26.85;12.98;;;;;;;20.75;32.15;101659.47;8663698;33;20918;-74
2022/03/27 15:58:58;;;;;;;25.00;12.18;;;;;;;20.36;32.54;101662.59;8661515;33;20459;-75
2022/03/27 16:04:01;;;;;;;21.65;11.50;;;;;;;20.13;33.28;101657.59;8657996;33;20186;-74
2022/03/27 16:09:06;;;;;;;21.40;12.13;;;;;;;19.58;34.39;101654.09;8660953;33;20291;-75
2022/03/27 16:14:10;;;;;;;26.17;12.13;;;;;;;19.06;35.42;101661.94;8660008;33;20275;-75
2022/03/27 16:19:16;;;;;;;27.15;14.30;;;;;;;18.68;36.25;101656.44;8652808;33;20415;-75
2022/03/27 16:24:19;;;;;;;27.55;14.00;;;;;;;18.27;37.79;101654.94;8658112;33;20193;-74
2022/03/27 16:29:24;;;;;;;28.50;15.02;;;;;;;17.48;39.30;101667.53;8662284;33;20645;-75
2022/03/27 16:34:29;;;;;;;28.48;14.77;;;;;;;17.22;40.11;101663.56;8662391;33;20425;-73
2022/03/27 16:39:33;;;;;;;26.20;14.03;;;;;;;17.19;40.01;101666.56;8661840;33;20872;-73
2022/03/27 16:44:37;;;;;;;30.63;13.60;;;;;;;16.85;40.49;101664.09;8660930;33;20154;-74
2022/03/27 16:49:40;;;;;;;27.13;14.35;;;;;;;16.46;41.46;101666.56;8661977;33;20407;-73
2022/03/27 16:54:43;;;;;;;24.63;12.65;;;;;;;16.12;41.92;101660.41;8661287;33;22734;-74
2022/03/27 16:59:48;;;;;;;25.63;12.95;;;;;;;15.87;42.50;101672.44;8661260;33;20405;-73
2022/03/27 17:04:53;;;;;;;23.52;12.77;;;;;;;15.63;43.01;101668.09;8661755;33;20417;-73
2022/03/27 17:09:56;;;;;;;25.52;12.05;;;;;;;15.24;43.90;101680.25;8662044;33;20968;-73
2022/03/27 17:15:02;;;;;;;24.73;11.18;;;;;;;14.79;44.96;101670.28;8660003;33;20427;-74
2022/03/27 17:20:08;;;;;;;24.38;11.55;;;;;;;14.49;45.14;101675.38;8659015;33;20635;-73
2022/03/27 17:25:12;;;;;;;22.42;11.52;;;;;;;14.08;46.32;101664.03;8658440;33;20166;-74
2022/03/27 17:30:16;;;;;;;19.58;10.30;;;;;;;13.69;47.29;101657.09;8660645;33;20190;-74
2022/03/27 17:35:19;;;;;;;20.80;10.25;;;;;;;13.36;47.79;101658.53;8662648;33;20518;-73
2022/03/27 17:40:22;;;;;;;19.05;9.85;;;;;;;13.17;48.61;101668.94;8660672;33;21087;-74
2022/03/27 17:45:27;;;;;;;23.67;10.40;;;;;;;13.00;49.74;101673.72;8647496;33;20421;-74
2022/03/27 17:50:30;;;;;;;23.42;11.80;;;;;;;12.80;51.00;101666.16;8629636;33;20648;-74
2022/03/27 17:55:33;;;;;;;23.02;11.45;;;;;;;12.51;53.41;101663.66;8655601;33;20866;-73
2022/03/27 18:00:38;;;;;;;26.35;12.27;;;;;;;12.38;54.01;101657.38;8661916;33;20162;-72
2022/03/27 18:05:41;;;;;;;27.60;13.35;;;;;;;12.31;54.37;101665.03;8662975;33;20403;-72
2022/03/27 18:10:46;;;;;;;23.23;12.20;;;;;;;12.19;54.88;101663.13;8665649;33;20413;-72
2022/03/27 18:15:51;;;;;;;23.83;11.90;;;;;;;12.05;55.36;101664.06;8659601;33;20426;-72
2022/03/27 18:20:56;;;;;;;26.58;13.95;;;;;;;11.91;55.86;101661.44;8661459;33;20626;-74
2022/03/27 18:26:00;;;;;;;26.70;13.23;;;;;;;11.75;56.38;101663.41;8664405;33;20135;-73
2022/03/27 18:31:05;;;;;;;29.55;14.15;;;;;;;11.62;57.07;101671.41;8663493;33;20542;-73
2022/03/27 18:36:10;;;;;;;28.00;13.27;;;;;;;11.63;57.05;101668.66;8674536;33;20143;-73
2022/03/27 18:41:13;;;;;;;27.77;14.05;;;;;;;11.48;57.51;101672.31;8683052;33;20319;-73
2022/03/27 18:46:18;;;;;;;27.80;13.55;;;;;;;11.41;57.55;101665.59;8699283;33;20510;-73
2022/03/27 18:51:21;;;;;;;24.85;13.48;;;;;;;11.25;58.24;101668.41;8682620;33;20185;-73
2022/03/27 18:56:24;;;;;;;30.23;13.15;;;;;;;11.13;58.75;101667.34;8673258;33;20263;-73
2022/03/27 19:01:30;;;;;;;34.15;14.35;;;;;;;11.16;59.00;101672.56;8678632;33;20444;-73
2022/03/27 19:06:34;;;;;;;29.73;14.73;;;;;;;11.21;58.77;101681.19;8673729;33;20189;-73
2022/03/27 19:11:37;;;;;;;28.75;13.73;;;;;;;10.88;59.59;101667.13;8674191;33;21321;-74
2022/03/27 19:16:42;;;;;;;26.50;13.63;;;;;;;10.71;60.45;101678.94;8673036;33;20915;-73
2022/03/27 19:21:52;;;;;;;24.48;13.40;;;;;;;10.66;60.64;101683.72;8675936;33;20265;-72
2022/03/27 19:26:55;;;;;;;28.98;15.10;;;;;;;10.54;60.89;101682.66;8671768;33;20404;-72
2022/03/27 19:32:00;;;;;;;32.28;16.25;;;;;;;10.46;61.18;101680.41;8670616;33;21027;-72
2022/03/27 19:37:03;;;;;;;26.45;14.02;;;;;;;10.35;61.46;101680.19;8674233;33;20211;-72
2022/03/27 19:42:08;;;;;;;30.83;13.63;;;;;;;10.21;62.06;101678.34;8672697;33;20453;-72
2022/03/27 19:47:14;;;;;;;29.20;14.93;;;;;;;10.19;62.30;101682.91;8672030;33;20146;-72
2022/03/27 19:52:17;;;;;;;33.13;15.30;;;;;;;10.15;62.78;101676.00;8662185;33;20511;-73
2022/03/27 19:57:21;;;;;;;27.52;14.70;;;;;;;10.10;62.99;101670.03;8663385;33;20545;-73
2022/03/27 20:02:26;;;;;;;29.88;15.63;;;;;;;10.06;63.27;101668.47;8663581;33;20469;-73
2022/03/27 20:07:30;;;;;;;34.97;15.15;;;;;;;10.06;63.29;101660.41;8663412;33;20400;-73
2022/03/27 20:12:33;;;;;;;29.08;14.75;;;;;;;10.01;63.25;101662.50;8664734;33;21172;-73
2022/03/27 20:17:38;;;;;;;26.75;13.68;;;;;;;9.83;63.81;101669.78;8661877;33;20547;-73
2022/03/27 20:22:41;;;;;;;27.38;13.57;;;;;;;9.68;64.21;101658.09;8662724;33;21190;-73
2022/03/27 20:27:45;;;;;;;29.05;14.15;;;;;;;9.54;65.02;101652.66;8661917;33;20524;-73
2022/03/27 20:33:09;;;;;;;29.85;14.70;;;;;;;9.39;65.63;101655.25;8663458;33;20134;-73
2022/03/27 20:38:14;;;;;;;30.95;14.93;;;;;;;9.16;65.98;101653.88;8658981;33;20393;-73
2022/03/27 20:49:44;;;;;;;29.85;14.90;;;;;;;8.91;67.25;101658.81;8657245;33;21027;-74
2022/03/27 20:54:52;;;;;;;34.17;16.08;;;;;;;8.84;67.89;101658.28;8658590;33;20402;-73
2022/03/27 20:59:55;;;;;;;30.00;14.77;;;;;;;8.84;67.33;101655.59;8659739;33;21049;-72
2022/03/27 21:05:00;;;;;;;38.72;17.23;;;;;;;8.84;67.40;101647.56;8660442;33;20972;-72
2022/03/27 21:10:03;;;;;;;33.83;16.92;;;;;;;8.89;67.15;101650.00;8658415;33;20635;-72
2022/03/27 21:15:09;;;;;;;33.47;16.52;;;;;;;8.84;66.52;101640.38;8658324;33;20277;-71
2022/03/27 21:20:13;;;;;;;32.83;15.57;;;;;;;8.72;66.57;101634.81;8658843;33;20602;-72
2022/03/27 21:25:17;;;;;;;32.40;16.90;;;;;;;8.71;67.13;101638.44;8659850;33;20995;-72
2022/03/27 21:30:20;;;;;;;34.50;16.10;;;;;;;8.72;67.15;101630.34;8657936;33;20682;-71
2022/03/27 21:35:25;;;;;;;32.85;15.95;;;;;;;8.74;67.09;101636.47;8658114;33;21038;-71
2022/03/27 21:40:28;;;;;;;40.35;17.98;;;;;;;8.66;66.82;101633.31;8658848;33;20455;-72
2022/03/27 21:45:31;;;;;;;38.83;18.10;;;;;;;8.53;67.03;101626.88;8657716;33;20217;-72
2022/03/27 21:50:36;;;;;;;32.75;16.92;;;;;;;8.36;67.26;101633.09;8653351;33;20538;-72
2022/03/27 21:55:38;;;;;;;35.38;15.93;;;;;;;8.20;68.35;101619.66;8653533;33;20245;-72
2022/03/27 22:01:01;;;;;;;34.55;16.60;;;;;;;8.21;68.94;101624.06;8651987;33;20441;-72
2022/03/27 22:06:07;;;;;;;32.40;15.82;;;;;;;8.20;68.25;101617.00;8652960;33;21041;-73
2022/03/27 22:11:13;;;;;;;36.42;15.82;;;;;;;8.08;68.40;101614.91;8653854;33;20506;-74
2022/03/27 22:16:16;;;;;;;33.50;16.90;;;;;;;7.85;70.06;101608.94;8654192;33;20201;-73
2022/03/27 22:21:21;;;;;;;35.53;17.23;;;;;;;8.06;70.31;101603.41;8653269;33;20545;-73
2022/03/27 22:26:25;;;;;;;34.90;16.20;;;;;;;8.16;69.55;101594.84;8655113;33;20223;-73
2022/03/27 22:31:28;;;;;;;33.65;16.23;;;;;;;8.02;68.89;101600.03;8659791;33;20185;-73
2022/03/27 22:36:32;;;;;;;37.08;16.85;;;;;;;7.82;69.37;101586.81;8658319;33;20493;-74
2022/03/27 22:41:35;;;;;;;35.08;16.27;;;;;;;7.80;69.43;101584.22;8659630;33;20880;-73
2022/03/27 22:46:39;;;;;;;29.45;16.35;;;;;;;7.88;68.79;101582.03;8664606;33;20413;-74
2022/03/27 22:51:45;;;;;;;37.83;18.13;;;;;;;7.70;68.83;101583.78;8666142;33;20151;-73
2022/03/27 22:56:48;;;;;;;35.47;16.48;;;;;;;7.62;69.08;101580.63;8665030;33;20915;-73
2022/03/27 23:01:51;;;;;;;29.10;16.80;;;;;;;7.53;69.14;101577.56;8664877;33;20189;-73
2022/03/27 23:06:56;;;;;;;30.25;15.18;;;;;;;7.36;69.42;101573.06;8665884;33;20268;-73
2022/03/27 23:11:58;;;;;;;37.25;17.33;;;;;;;7.33;70.10;101578.56;8665279;33;20484;-73
2022/03/27 23:17:02;;;;;;;33.80;16.77;;;;;;;7.40;71.05;101567.47;8665445;33;20926;-73
2022/03/27 23:22:06;;;;;;;37.53;17.35;;;;;;;7.51;70.35;101561.59;8669599;33;20133;-73
2022/03/27 23:27:09;;;;;;;30.83;16.38;;;;;;;7.28;70.22;101547.56;8670764;33;21022;-73
2022/03/27 23:32:13;;;;;;;35.22;17.75;;;;;;;7.19;70.01;101547.16;8663805;33;20514;-73
2022/03/27 23:37:17;;;;;;;33.97;17.20;;;;;;;7.07;70.16;101540.56;8651016;33;20695;-74
2022/03/27 23:42:21;;;;;;;34.72;18.13;;;;;;;6.93;70.82;101537.69;8680154;33;20465;-73